sensor_id;sensor_type;location;lat;lon;timestamp;temperature;humidity
19292;DHT22;9779;51.756;7.450;2023-02-02T12:59:58;7.30;99.90
19292;DHT22;9779;51.756;7.450;2023-02-02T13:05:38;7.30;99.90
19292;DHT22;9779;51.756;7.450;2023-02-02T13:08:13;7.30;99.90
19292;DHT22;9779;51.756;7.450;2023-02-02T13:10:45;7.30;99.90
19292;DHT22;9779;51.756;7.450;2023-02-02T13:13:27;7.30;99.90
19292;DHT22;9779;51.756;7.450;2023-02-02T13:16:02;7.30;99.90
19292;DHT22;9779;51.756;7.450;2023-02-02T13:18:38;7.30;99.90
19292;DHT22;9779;51.756;7.450;2023-02-02T13:21:14;7.30;99.90
19292;DHT22;9779;51.756;7.450;2023-02-02T13:23:50;7.30;99.90
19292;DHT22;9779;51.756;7.450;2023-02-02T13:26:26;7.30;99.90
19292;DHT22;9779;51.756;7.450;2023-02-02T13:28:56;7.30;99.90
19292;DHT22;9779;51.756;7.450;2023-02-02T13:34:37;7.30;99.90
19292;DHT22;9779;51.756;7.450;2023-02-02T13:37:28;7.30;99.90
19292;DHT22;9779;51.756;7.450;2023-02-02T13:40:00;7.30;99.90
19292;DHT22;9779;51.756;7.450;2023-02-02T13:48:33;7.30;99.90
19292;DHT22;9779;51.756;7.450;2023-02-02T13:54:10;7.30;99.90
19292;DHT22;9779;51.756;7.450;2023-02-02T13:59:41;7.30;99.90
19292;DHT22;9779;51.756;7.450;2023-02-02T14:04:54;7.30;99.90
19292;DHT22;9779;51.756;7.450;2023-02-02T14:10:31;7.30;99.90
19292;DHT22;9779;51.756;7.450;2023-02-02T14:13:16;7.30;99.90
19292;DHT22;9779;51.756;7.450;2023-02-02T14:16:04;7.30;99.90
19292;DHT22;9779;51.756;7.450;2023-02-02T14:24:36;7.30;99.90
19292;DHT22;9779;51.756;7.450;2023-02-02T14:27:01;7.30;99.90
19292;DHT22;9779;51.756;7.450;2023-02-02T14:34:51;7.40;99.90
19292;DHT22;9779;51.756;7.450;2023-02-02T14:45:33;7.40;99.90
19292;DHT22;9779;51.756;7.450;2023-02-02T14:48:25;7.40;99.90
19292;DHT22;9779;51.756;7.450;2023-02-02T14:50:56;7.40;99.90
19292;DHT22;9779;51.756;7.450;2023-02-02T14:53:31;7.30;99.90
19292;DHT22;9779;51.756;7.450;2023-02-02T15:14:41;7.30;99.90
19292;DHT22;9779;51.756;7.450;2023-02-02T15:20:20;7.30;99.90
19292;DHT22;9779;51.756;7.450;2023-02-02T15:23:06;7.30;99.90
19292;DHT22;9779;51.756;7.450;2023-02-02T15:26:01;7.30;99.90
19292;DHT22;9779;51.756;7.450;2023-02-02T15:28:41;7.30;99.90
19292;DHT22;9779;51.756;7.450;2023-02-02T15:31:13;7.30;99.90
19292;DHT22;9779;51.756;7.450;2023-02-02T15:33:44;7.30;99.90
19292;DHT22;9779;51.756;7.450;2023-02-02T15:36:17;7.30;99.90
19292;DHT22;9779;51.756;7.450;2023-02-02T15:38:44;7.30;99.90
19292;DHT22;9779;51.756;7.450;2023-02-02T15:43:50;7.20;99.90
19292;DHT22;9779;51.756;7.450;2023-02-02T15:46:19;7.20;99.90
19292;DHT22;9779;51.756;7.450;2023-02-02T15:51:45;7.20;99.90
19292;DHT22;9779;51.756;7.450;2023-02-02T15:54:27;7.20;99.90
19292;DHT22;9779;51.756;7.450;2023-02-02T15:56:55;7.20;99.90
19292;DHT22;9779;51.756;7.450;2023-02-02T15:59:23;7.20;99.90
19292;DHT22;9779;51.756;7.450;2023-02-02T16:02:28;7.20;99.90
19292;DHT22;9779;51.756;7.450;2023-02-02T16:04:45;7.20;99.90
19292;DHT22;9779;51.756;7.450;2023-02-02T16:07:14;7.20;99.90
19292;DHT22;9779;51.756;7.450;2023-02-02T16:09:41;7.20;99.90
19292;DHT22;9779;51.756;7.450;2023-02-02T16:12:14;7.20;99.90
19292;DHT22;9779;51.756;7.450;2023-02-02T16:14:46;7.20;99.90
19292;DHT22;9779;51.756;7.450;2023-02-02T16:17:21;7.20;99.90
19292;DHT22;9779;51.756;7.450;2023-02-02T16:20:03;7.10;99.90
19292;DHT22;9779;51.756;7.450;2023-02-02T16:22:33;7.50;99.90
19292;DHT22;9779;51.756;7.450;2023-02-02T16:25:02;7.40;99.90
19292;DHT22;9779;51.756;7.450;2023-02-02T16:27:30;7.20;99.90
19292;DHT22;9779;51.756;7.450;2023-02-02T16:30:00;7.30;99.90
19292;DHT22;9779;51.756;7.450;2023-02-02T16:34:56;7.20;99.90
19292;DHT22;9779;51.756;7.450;2023-02-02T16:37:25;7.20;99.90
19292;DHT22;9779;51.756;7.450;2023-02-02T16:39:52;7.20;99.90
19292;DHT22;9779;51.756;7.450;2023-02-02T16:44:49;7.20;99.90
19292;DHT22;9779;51.756;7.450;2023-02-02T16:49:52;7.20;99.90
19292;DHT22;9779;51.756;7.450;2023-02-02T16:52:20;7.20;99.90
19292;DHT22;9779;51.756;7.450;2023-02-02T16:54:51;7.20;99.90
19292;DHT22;9779;51.756;7.450;2023-02-02T16:57:24;7.20;99.90
19292;DHT22;9779;51.756;7.450;2023-02-02T16:59:56;7.20;99.90
19292;DHT22;9779;51.756;7.450;2023-02-02T17:02:32;7.20;99.90
19292;DHT22;9779;51.756;7.450;2023-02-02T17:05:15;7.20;99.90
19292;DHT22;9779;51.756;7.450;2023-02-02T17:07:50;7.20;99.90
19292;DHT22;9779;51.756;7.450;2023-02-02T17:12:44;7.20;99.90
19292;DHT22;9779;51.756;7.450;2023-02-02T17:17:42;7.20;99.90
19292;DHT22;9779;51.756;7.450;2023-02-02T17:20:08;7.20;99.90
19292;DHT22;9779;51.756;7.450;2023-02-02T17:22:38;7.30;99.90
19292;DHT22;9779;51.756;7.450;2023-02-02T17:25:05;7.30;99.90
19292;DHT22;9779;51.756;7.450;2023-02-02T17:27:32;7.20;99.90
19292;DHT22;9779;51.756;7.450;2023-02-02T17:30:02;7.30;99.90
19292;DHT22;9779;51.756;7.450;2023-02-02T17:32:28;7.30;99.90
19292;DHT22;9779;51.756;7.450;2023-02-02T17:34:54;7.30;99.90
19292;DHT22;9779;51.756;7.450;2023-02-02T17:37:21;7.30;99.90
19292;DHT22;9779;51.756;7.450;2023-02-02T17:39:47;7.30;99.90
19292;DHT22;9779;51.756;7.450;2023-02-02T17:42:25;7.30;99.90
19292;DHT22;9779;51.756;7.450;2023-02-02T17:44:51;7.30;99.90
19292;DHT22;9779;51.756;7.450;2023-02-02T17:47:17;7.30;99.90
19292;DHT22;9779;51.756;7.450;2023-02-02T17:49:42;7.30;99.90
19292;DHT22;9779;51.756;7.450;2023-02-02T17:52:09;7.30;99.90
19292;DHT22;9779;51.756;7.450;2023-02-02T17:54:34;7.30;99.90
19292;DHT22;9779;51.756;7.450;2023-02-02T17:57:00;7.30;99.90
19292;DHT22;9779;51.756;7.450;2023-02-02T17:59:25;7.30;99.90
19292;DHT22;9779;51.756;7.450;2023-02-02T18:01:51;7.20;99.90
19292;DHT22;9779;51.756;7.450;2023-02-02T18:04:19;7.30;99.90
19292;DHT22;9779;51.756;7.450;2023-02-02T18:06:45;7.20;99.90
19292;DHT22;9779;51.756;7.450;2023-02-02T18:09:11;7.20;99.90
19292;DHT22;9779;51.756;7.450;2023-02-02T18:11:36;7.20;99.90
19292;DHT22;9779;51.756;7.450;2023-02-02T18:14:02;7.30;99.90
19292;DHT22;9779;51.756;7.450;2023-02-02T18:16:28;7.30;99.90
19292;DHT22;9779;51.756;7.450;2023-02-02T18:18:54;7.20;99.90
19292;DHT22;9779;51.756;7.450;2023-02-02T18:21:20;7.20;99.90
19292;DHT22;9779;51.756;7.450;2023-02-02T18:23:47;7.20;99.90
19292;DHT22;9779;51.756;7.450;2023-02-02T18:26:15;7.20;99.90
19292;DHT22;9779;51.756;7.450;2023-02-02T18:28:45;7.20;99.90
19292;DHT22;9779;51.756;7.450;2023-02-02T18:31:14;7.20;99.90
19292;DHT22;9779;51.756;7.450;2023-02-02T18:33:41;7.20;99.90
19292;DHT22;9779;51.756;7.450;2023-02-02T18:36:12;7.20;99.90
19292;DHT22;9779;51.756;7.450;2023-02-02T18:38:40;7.20;99.90
19292;DHT22;9779;51.756;7.450;2023-02-02T18:41:05;7.20;99.90
19292;DHT22;9779;51.756;7.450;2023-02-02T18:43:31;7.20;99.90
19292;DHT22;9779;51.756;7.450;2023-02-02T18:46:02;7.20;99.90
19292;DHT22;9779;51.756;7.450;2023-02-02T18:48:29;7.20;99.90
19292;DHT22;9779;51.756;7.450;2023-02-02T18:50:56;7.20;99.90
19292;DHT22;9779;51.756;7.450;2023-02-02T18:53:21;7.20;99.90
19292;DHT22;9779;51.756;7.450;2023-02-02T18:55:47;7.20;99.90
19292;DHT22;9779;51.756;7.450;2023-02-02T18:58:13;7.20;99.90
19292;DHT22;9779;51.756;7.450;2023-02-02T19:00:40;7.20;99.90
19292;DHT22;9779;51.756;7.450;2023-02-02T19:03:05;7.20;99.90
19292;DHT22;9779;51.756;7.450;2023-02-02T19:05:31;7.20;99.90
19292;DHT22;9779;51.756;7.450;2023-02-02T19:08:15;7.20;99.90
19292;DHT22;9779;51.756;7.450;2023-02-02T19:10:41;7.20;99.90
19292;DHT22;9779;51.756;7.450;2023-02-02T19:13:17;7.20;99.90
19292;DHT22;9779;51.756;7.450;2023-02-02T19:15:45;7.20;99.90
19292;DHT22;9779;51.756;7.450;2023-02-02T19:18:24;7.20;99.90
19292;DHT22;9779;51.756;7.450;2023-02-02T19:20:50;7.20;99.90
19292;DHT22;9779;51.756;7.450;2023-02-02T19:23:19;7.30;99.90
19292;DHT22;9779;51.756;7.450;2023-02-02T19:25:49;7.30;99.90
19292;DHT22;9779;51.756;7.450;2023-02-02T19:28:28;7.30;99.90
19292;DHT22;9779;51.756;7.450;2023-02-02T19:30:56;7.30;99.90
19292;DHT22;9779;51.756;7.450;2023-02-02T19:33:49;7.30;99.90
19292;DHT22;9779;51.756;7.450;2023-02-02T19:36:17;7.30;99.90
19292;DHT22;9779;51.756;7.450;2023-02-02T19:38:44;7.30;99.90
19292;DHT22;9779;51.756;7.450;2023-02-02T19:41:19;7.30;99.90
19292;DHT22;9779;51.756;7.450;2023-02-02T19:43:46;7.30;99.90
19292;DHT22;9779;51.756;7.450;2023-02-02T19:46:20;7.30;99.90
19292;DHT22;9779;51.756;7.450;2023-02-02T19:48:47;7.30;99.90
19292;DHT22;9779;51.756;7.450;2023-02-02T19:51:35;7.30;99.90
19292;DHT22;9779;51.756;7.450;2023-02-02T19:54:02;7.30;99.90
19292;DHT22;9779;51.756;7.450;2023-02-02T19:56:32;7.30;99.90
19292;DHT22;9779;51.756;7.450;2023-02-02T19:59:00;7.30;99.90
19292;DHT22;9779;51.756;7.450;2023-02-02T20:01:28;7.30;99.90
19292;DHT22;9779;51.756;7.450;2023-02-02T20:03:57;7.30;99.90
19292;DHT22;9779;51.756;7.450;2023-02-02T20:06:25;7.30;99.90
19292;DHT22;9779;51.756;7.450;2023-02-02T20:08:51;7.30;99.90
19292;DHT22;9779;51.756;7.450;2023-02-02T20:11:39;7.30;99.90
19292;DHT22;9779;51.756;7.450;2023-02-02T20:16:51;7.30;99.90
19292;DHT22;9779;51.756;7.450;2023-02-02T20:19:23;7.30;99.90
19292;DHT22;9779;51.756;7.450;2023-02-02T20:21:50;7.40;99.90
19292;DHT22;9779;51.756;7.450;2023-02-02T20:24:36;7.30;99.90
19292;DHT22;9779;51.756;7.450;2023-02-02T20:27:15;7.40;99.90
19292;DHT22;9779;51.756;7.450;2023-02-02T20:29:43;7.40;99.90
19292;DHT22;9779;51.756;7.450;2023-02-02T20:34:42;7.40;99.90
19292;DHT22;9779;51.756;7.450;2023-02-02T20:39:48;7.40;99.90
19292;DHT22;9779;51.756;7.450;2023-02-02T20:42:15;7.40;99.90
19292;DHT22;9779;51.756;7.450;2023-02-02T20:44:41;7.40;99.90
19292;DHT22;9779;51.756;7.450;2023-02-02T20:47:07;7.50;99.90
19292;DHT22;9779;51.756;7.450;2023-02-02T20:49:34;7.40;99.90
19292;DHT22;9779;51.756;7.450;2023-02-02T20:52:03;7.40;99.90
19292;DHT22;9779;51.756;7.450;2023-02-02T20:54:29;7.50;99.90
19292;DHT22;9779;51.756;7.450;2023-02-02T20:56:56;7.50;99.90
19292;DHT22;9779;51.756;7.450;2023-02-02T20:59:22;7.50;99.90
19292;DHT22;9779;51.756;7.450;2023-02-02T21:01:48;7.50;99.90
19292;DHT22;9779;51.756;7.450;2023-02-02T21:04:17;7.50;99.90
19292;DHT22;9779;51.756;7.450;2023-02-02T21:06:44;7.50;99.90
19292;DHT22;9779;51.756;7.450;2023-02-02T21:09:10;7.50;99.90
19292;DHT22;9779;51.756;7.450;2023-02-02T21:11:36;7.50;99.90
19292;DHT22;9779;51.756;7.450;2023-02-02T21:14:02;7.50;99.90
19292;DHT22;9779;51.756;7.450;2023-02-02T21:16:28;7.50;99.90
19292;DHT22;9779;51.756;7.450;2023-02-02T21:18:53;7.50;99.90
19292;DHT22;9779;51.756;7.450;2023-02-02T21:21:19;7.50;99.90
19292;DHT22;9779;51.756;7.450;2023-02-02T21:23:47;7.50;99.90
19292;DHT22;9779;51.756;7.450;2023-02-02T21:26:13;7.50;99.90
19292;DHT22;9779;51.756;7.450;2023-02-02T21:28:39;7.50;99.90
19292;DHT22;9779;51.756;7.450;2023-02-02T21:31:06;7.60;99.90
19292;DHT22;9779;51.756;7.450;2023-02-02T21:33:32;7.60;99.90
19292;DHT22;9779;51.756;7.450;2023-02-02T21:35:58;7.60;99.90
19292;DHT22;9779;51.756;7.450;2023-02-02T21:38:27;7.60;99.90
19292;DHT22;9779;51.756;7.450;2023-02-02T21:40:53;7.60;99.90
19292;DHT22;9779;51.756;7.450;2023-02-02T21:43:19;7.60;99.90
19292;DHT22;9779;51.756;7.450;2023-02-02T21:45:49;7.60;99.90
19292;DHT22;9779;51.756;7.450;2023-02-02T21:50:44;7.60;99.90
19292;DHT22;9779;51.756;7.450;2023-02-02T21:53:21;7.70;99.90
19292;DHT22;9779;51.756;7.450;2023-02-02T22:00:44;7.70;99.90
19292;DHT22;9779;51.756;7.450;2023-02-02T22:03:38;7.70;99.90
19292;DHT22;9779;51.756;7.450;2023-02-02T22:06:20;7.70;99.90
19292;DHT22;9779;51.756;7.450;2023-02-02T22:08:48;7.80;99.90
19292;DHT22;9779;51.756;7.450;2023-02-02T22:11:27;7.70;99.90
19292;DHT22;9779;51.756;7.450;2023-02-02T22:13:58;7.80;99.90
19292;DHT22;9779;51.756;7.450;2023-02-02T22:16:25;7.80;99.90
19292;DHT22;9779;51.756;7.450;2023-02-02T22:18:50;7.80;99.90
19292;DHT22;9779;51.756;7.450;2023-02-02T22:21:16;7.80;99.90
19292;DHT22;9779;51.756;7.450;2023-02-02T22:23:42;7.80;99.90
19292;DHT22;9779;51.756;7.450;2023-02-02T22:26:22;7.80;99.90
19292;DHT22;9779;51.756;7.450;2023-02-02T22:28:53;7.80;99.90
19292;DHT22;9779;51.756;7.450;2023-02-02T22:31:19;7.90;99.90
19292;DHT22;9779;51.756;7.450;2023-02-02T22:33:45;7.90;99.90
19292;DHT22;9779;51.756;7.450;2023-02-02T22:36:10;7.90;99.90
19292;DHT22;9779;51.756;7.450;2023-02-02T22:38:36;7.90;99.90
19292;DHT22;9779;51.756;7.450;2023-02-02T22:41:01;7.90;99.90
19292;DHT22;9779;51.756;7.450;2023-02-02T22:43:27;8.00;99.90
19292;DHT22;9779;51.756;7.450;2023-02-02T22:45:52;7.90;99.90
19292;DHT22;9779;51.756;7.450;2023-02-02T22:48:18;7.90;99.90
19292;DHT22;9779;51.756;7.450;2023-02-02T22:50:43;7.90;99.90
19292;DHT22;9779;51.756;7.450;2023-02-02T22:53:09;7.90;99.90
19292;DHT22;9779;51.756;7.450;2023-02-02T22:55:35;7.90;99.90
19292;DHT22;9779;51.756;7.450;2023-02-02T22:58:01;8.00;99.90
19292;DHT22;9779;51.756;7.450;2023-02-02T23:00:28;8.00;99.90
19292;DHT22;9779;51.756;7.450;2023-02-02T23:02:55;8.00;99.90
19292;DHT22;9779;51.756;7.450;2023-02-02T23:05:23;8.00;99.90
19292;DHT22;9779;51.756;7.450;2023-02-02T23:07:50;8.00;99.90
19292;DHT22;9779;51.756;7.450;2023-02-02T23:10:21;8.00;99.90
19292;DHT22;9779;51.756;7.450;2023-02-02T23:12:47;8.00;99.90
19292;DHT22;9779;51.756;7.450;2023-02-02T23:15:14;8.10;99.90
19292;DHT22;9779;51.756;7.450;2023-02-02T23:17:40;8.00;99.90
19292;DHT22;9779;51.756;7.450;2023-02-02T23:20:08;8.00;99.90
19292;DHT22;9779;51.756;7.450;2023-02-02T23:22:35;8.00;99.90
19292;DHT22;9779;51.756;7.450;2023-02-02T23:25:00;8.00;99.90
19292;DHT22;9779;51.756;7.450;2023-02-02T23:27:26;8.00;99.90
19292;DHT22;9779;51.756;7.450;2023-02-02T23:29:52;8.00;99.90
19292;DHT22;9779;51.756;7.450;2023-02-02T23:32:17;8.00;99.90
19292;DHT22;9779;51.756;7.450;2023-02-02T23:34:43;8.00;99.90
19292;DHT22;9779;51.756;7.450;2023-02-02T23:37:09;8.00;99.90
19292;DHT22;9779;51.756;7.450;2023-02-02T23:39:34;8.00;99.90
19292;DHT22;9779;51.756;7.450;2023-02-02T23:42:00;8.00;99.90
19292;DHT22;9779;51.756;7.450;2023-02-02T23:44:25;8.00;99.90
19292;DHT22;9779;51.756;7.450;2023-02-02T23:46:52;8.00;99.90
19292;DHT22;9779;51.756;7.450;2023-02-02T23:49:17;8.00;99.90
19292;DHT22;9779;51.756;7.450;2023-02-02T23:51:43;8.00;99.90
19292;DHT22;9779;51.756;7.450;2023-02-02T23:54:10;8.00;99.90
19292;DHT22;9779;51.756;7.450;2023-02-02T23:56:36;8.00;99.90
19292;DHT22;9779;51.756;7.450;2023-02-02T23:59:02;8.10;99.90
